Latest Weather Observations for Melbourne Airport

IDV60901

Issued at 5:01 pm EDT Sunday 22 October 2017 (issued every 10 minutes, with the page automatically refreshed every 10 minutes)

About weather observations | Map of Melbourne area stations | Latest observations for Melbourne area | Other Formats
Station Details ID: 086282 Name: MELBOURNE AIRPORT Lat: -37.67 Lon: 144.83 Height: 113.4 m
Data from the previous 72 hours. | See also: Recent months at Melbourne Airport
Date/Time
EDT
Temp
°C
App
Temp
°C
Dew
Point
°C
Rel
Hum
%
Delta-T
°C
Wind Press
QNH
hPa
Press
MSL
hPa
Rain since
9am
mm
Dir  Spd
km/h
Gust
km/h
Spd
kts
Gust
kts
22/04:30pm 15.0 11.4 10.0 72 2.6 SSE 19 24 10 13 1017.1 1017.1 0.0
22/04:00pm 14.6 11.1 11.0 79 1.9 SSE 20 26 11 14 1017.2 1017.2 0.0
22/03:30pm 14.0 10.8 12.0 88 1.1 SSE 20 30 11 16 1017.4 1017.4 0.0
22/03:00pm 15.6 11.4 9.9 69 3.0 SSW 22 32 12 17 1017.5 1017.5 0.0
22/02:30pm 16.0 11.9 8.6 61 3.8 SSW 20 30 11 16 1017.6 1017.6 0.0
22/02:00pm 15.1 11.9 10.1 72 2.6 SSE 17 22 9 12 1018.1 1018.0 0.0
22/01:30pm 14.9 11.0 8.8 67 3.1 SSW 19 26 10 14 1018.3 1018.2 0.0
22/01:00pm 15.6 11.4 7.6 59 4.0 SSW 19 24 10 13 1018.2 1018.1 0.0
22/12:30pm 15.5 11.6 7.2 57 4.1 SSW 17 22 9 12 1018.5 1018.4 0.0
22/12:00pm 15.2 11.3 7.1 58 4.0 SSW 17 24 9 13 1018.6 1018.5 0.0
22/11:30am 15.0 11.4 6.8 58 4.0 SSW 15 19 8 10 1018.7 1018.6 0.0
22/11:00am 14.4 10.5 7.1 61 3.6 SSW 17 26 9 14 1018.9 1018.8 0.0
22/10:30am 14.0 9.8 7.5 65 3.2 SSW 19 30 10 16 1019.0 1018.9 0.0
22/10:00am 13.1 8.0 7.6 69 2.7 SW 24 33 13 18 1019.0 1018.9 0.0
22/09:30am 12.8 6.9 7.7 71 2.5 SW 28 33 15 18 1018.9 1018.8 0.0
22/09:28am 12.9 7.1 7.8 71 2.5 SW 28 33 15 18 1018.9 1018.8 0.0
22/09:00am 12.1 6.7 8.0 76 2.0 SW 26 32 14 17 1018.9 1018.8 0.0
22/08:59am 12.0 6.6 8.1 77 1.9 SW 26 32 14 17 1018.9 1018.8 0.0
22/08:30am 11.6 6.7 8.4 81 1.6 SW 24 30 13 16 1018.7 1018.6 0.0
22/08:00am 10.7 5.8 8.5 86 1.1 SW 24 30 13 16 1018.7 1018.6 0.0
22/07:30am 10.6 6.3 7.9 83 1.3 WSW 20 28 11 15 1018.5 1018.4 0.0
22/07:00am 10.1 5.9 8.3 88 0.9 WSW 20 28 11 15 1018.2 1018.1 0.0
22/06:30am 10.0 5.7 7.9 87 1.0 WSW 20 28 11 15 1017.9 1017.9 0.0
22/06:00am 9.8 4.9 8.4 91 0.7 WSW 24 32 13 17 1017.8 1017.8 0.0
22/05:30am 9.7 4.9 8.7 93 0.5 WSW 24 32 13 17 1017.9 1017.9 0.0
22/05:00am 9.8 4.9 8.6 92 0.6 WSW 24 32 13 17 1018.1 1018.0 0.0
22/04:30am 10.1 6.0 8.0 87 1.0 SW 19 26 10 14 1018.4 1018.3 0.0
22/04:00am 10.1 6.7 7.8 86 1.1 SW 15 20 8 11 1018.6 1018.5 0.0
22/03:30am 10.3 6.4 7.2 81 1.5 WSW 17 20 9 11 1018.5 1018.4 0.0
22/03:12am 10.2 6.8 7.5 83 1.3 SW 15 19 8 10 1019.0 1018.9 0.0
22/03:00am 10.1 6.3 7.6 84 1.2 WSW 17 24 9 13 1019.2 1019.1 0.0
22/02:30am 10.5 6.9 6.7 77 1.8 SW 15 19 8 10 1019.5 1019.4 0.0
22/02:00am 10.4 6.8 6.6 77 1.8 WSW 15 19 8 10 1019.8 1019.7 0.0
22/01:30am 10.3 6.3 6.5 77 1.8 WSW 17 20 9 11 1020.1 1020.0 0.0
22/01:00am 10.4 6.5 7.3 81 1.5 WSW 17 22 9 12 1020.5 1020.4 0.0
22/12:30am 10.0 5.6 7.3 83 1.3 WSW 20 28 11 15 1020.7 1020.6 0.0
22/12:00am 10.1 6.2 7.2 82 1.4 WSW 17 20 9 11 1020.9 1020.8 0.0
 
Date/Time
EDT
Temp
°C
App
Temp
°C
Dew
Point
°C
Rel
Hum
%
Delta-T
°C
Wind Press
QNH
hPa
Press
MSL
hPa
Rain since
9am
mm
Dir  Spd
km/h
Gust
km/h
Spd
kts
Gust
kts
21/11:30pm 9.5 5.0 7.0 84 1.2 WSW 20 26 11 14 1021.1 1021.0 0.0
21/11:00pm 9.8 5.3 6.8 81 1.4 WSW 20 28 11 15 1021.2 1021.1 0.0
21/10:30pm 11.0 5.7 6.8 75 2.0 SW 24 32 13 17 1021.4 1021.4 0.0
21/10:00pm 11.2 9.4 9.4 89 0.9 SW 9 11 5 6 1021.7 1021.7 0.0
21/09:30pm 11.1 8.9 9.5 90 0.8 SSW 11 15 6 8 1021.8 1021.8 0.0
21/09:14pm 11.2 9.0 9.4 89 0.9 SSW 11 15 6 8 1021.9 1021.9 0.0
21/09:00pm 11.2 9.0 9.4 89 0.9 S 11 15 6 8 1021.9 1021.9 0.0
21/08:30pm 11.4 9.2 9.2 86 1.1 SSE 11 13 6 7 1021.9 1021.9 0.0
21/08:00pm 11.1 9.3 9.5 90 0.8 S 9 13 5 7 1022.0 1022.0 0.0
21/07:30pm 11.1 8.2 9.5 90 0.8 SSE 15 19 8 10 1022.0 1022.0 0.0
21/07:00pm 11.7 7.7 8.9 83 1.4 SSE 20 28 11 15 1021.8 1021.8 0.0
21/06:30pm 12.7 8.2 7.1 69 2.7 SSE 20 28 11 15 1021.8 1021.8 0.0
21/06:00pm 13.2 8.9 6.8 65 3.1 SSE 19 24 10 13 1021.7 1021.7 0.0
21/05:30pm 13.1 9.0 6.4 64 3.2 SSE 17 22 9 12 1021.9 1021.9 0.0
21/05:00pm 13.8 10.2 6.8 62 3.4 SSE 15 20 8 11 1022.0 1022.0 0.0
21/04:30pm 13.2 9.2 6.5 64 3.2 S 17 24 9 13 1022.3 1022.3 0.0
21/04:00pm 14.1 9.7 4.9 54 4.3 SSE 17 22 9 12 1022.4 1022.4 0.0
21/03:30pm 14.5 10.3 5.9 56 4.1 S 17 26 9 14 1022.7 1022.7 0.0
21/03:00pm 14.2 9.8 4.5 52 4.5 S 17 26 9 14 1023.0 1023.0 0.0
21/02:30pm 13.9 9.8 4.1 51 4.5 SSW 15 26 8 14 1023.5 1023.5 0.0
21/02:00pm 13.7 9.3 4.9 55 4.1 SSW 17 22 9 12 1023.9 1023.9 0.0
21/01:30pm 13.4 7.6 4.5 55 4.1 SW 24 35 13 19 1024.2 1024.2 0.0
21/01:00pm 13.7 8.4 3.2 49 4.7 S 20 30 11 16 1024.5 1024.5 0.0
21/12:30pm 13.1 8.2 4.3 55 4.0 SW 19 26 10 14 1024.9 1024.9 0.0
21/12:00pm 13.1 8.0 4.3 55 4.0 SSW 20 30 11 16 1025.3 1025.3 0.0
21/11:30am 12.6 7.7 3.9 55 3.9 S 19 24 10 13 1025.6 1025.6 0.0
21/11:00am 12.8 7.7 4.2 56 3.9 SSW 20 28 11 15 1025.7 1025.7 0.0
21/10:30am 12.1 7.1 4.4 59 3.5 SSW 20 28 11 15 1026.0 1026.0 0.0
21/10:00am 11.6 6.2 4.5 61 3.2 SSW 22 33 12 18 1026.0 1026.0 0.0
21/09:30am 11.6 6.5 4.3 61 3.3 SSW 20 30 11 16 1026.0 1026.0 0.0
21/09:00am 11.5 6.5 4.4 61 3.2 SSW 20 30 11 16 1026.1 1026.1 0.0
21/08:30am 11.1 6.2 3.9 61 3.2 SW 19 26 10 14 1026.1 1026.1 0.0
21/08:00am 10.5 6.0 4.2 65 2.8 SW 17 20 9 11 1026.1 1026.1 0.0
21/07:30am 10.2 6.5 4.4 67 2.6 SSW 13 19 7 10 1026.2 1026.2 0.0
21/07:00am 10.0 5.9 4.1 67 2.6 SW 15 19 8 10 1026.3 1026.3 0.0
21/06:30am 9.9 4.8 4.3 68 2.5 SW 20 28 11 15 1026.2 1026.2 0.0
21/06:00am 10.1 5.9 3.7 64 2.8 SW 15 20 8 11 1026.2 1026.2 0.0
21/05:30am 10.0 5.4 3.9 66 2.7 SW 17 24 9 13 1026.1 1026.1 0.0
21/05:00am 10.0 4.4 3.6 64 2.8 SW 22 28 12 15 1026.2 1026.2 0.0
21/04:30am 10.0 5.3 3.3 63 2.9 SW 17 24 9 13 1026.4 1026.4 0.0
21/04:00am 10.0 5.3 3.3 63 2.9 SW 17 20 9 11 1026.5 1026.5 0.0
21/03:30am 10.2 5.5 3.3 62 3.0 SW 17 26 9 14 1027.0 1026.9 0.0
21/03:00am 10.5 5.3 3.4 61 3.1 SW 20 26 11 14 1027.0 1026.9 0.0
21/02:30am 10.5 5.3 3.4 61 3.1 SW 20 28 11 15 1027.3 1027.2 0.0
21/02:00am 10.5 5.0 3.9 63 2.9 SW 22 30 12 16 1027.6 1027.5 0.0
21/01:30am 11.0 6.1 4.0 62 3.1 SSW 19 30 10 16 1027.8 1027.7 0.0
21/01:00am 11.2 5.9 2.9 56 3.6 S 20 28 11 15 1028.0 1027.9 0.0
21/12:30am 11.4 6.3 4.0 60 3.3 S 20 33 11 18 1028.3 1028.2 0.0
21/12:00am 11.3 6.2 3.9 60 3.3 S 20 28 11 15 1028.4 1028.3 0.0
 
Date/Time
EDT
Temp
°C
App
Temp
°C
Dew
Point
°C
Rel
Hum
%
Delta-T
°C
Wind Press
QNH
hPa
Press
MSL
hPa
Rain since
9am
mm
Dir  Spd
km/h
Gust
km/h
Spd
kts
Gust
kts
20/11:30pm 11.3 6.4 3.9 60 3.3 S 19 28 10 15 1028.6 1028.6 0.0
20/11:00pm 11.2 6.1 3.2 58 3.5 S 19 30 10 16 1028.8 1028.8 0.0
20/10:30pm 11.2 5.9 3.2 58 3.5 SSW 20 30 11 16 1029.0 1029.0 0.0
20/10:00pm 11.3 6.1 3.3 58 3.5 S 20 30 11 16 1029.1 1029.1 0.0
20/09:30pm 11.4 5.7 2.9 56 3.7 S 22 32 12 17 1029.1 1029.1 0.0
20/09:00pm 11.4 5.4 3.2 57 3.6 S 24 33 13 18 1029.1 1029.1 0.0
20/08:30pm 11.6 5.7 3.7 58 3.5 S 24 32 13 17 1028.7 1028.7 0.0
20/08:00pm 11.8 5.4 3.4 56 3.7 S 26 32 14 17 1028.5 1028.4 0.0
20/07:30pm 12.1 4.8 4.4 59 3.5 S 32 39 17 21 1028.2 1028.1 0.0
20/07:00pm 12.5 5.5 4.1 56 3.8 S 30 39 16 21 1028.1 1028.0 0.0
20/06:30pm 12.8 5.6 2.8 50 4.4 S 30 43 16 23 1028.1 1028.0 0.0
20/06:00pm 12.9 4.7 0.1 41 5.3 SSE 33 44 18 24 1027.8 1027.7 0.0
20/05:30pm 14.0 5.5 1.2 41 5.5 SSE 35 46 19 25 1027.7 1027.6 0.0
20/05:00pm 14.6 6.6 1.5 41 5.7 SSE 33 43 18 23 1027.5 1027.4 0.0
20/04:30pm 14.6 6.1 0.8 39 5.9 S 35 46 19 25 1027.4 1027.3 0.0
20/04:00pm 15.5 7.5 1.6 39 6.1 S 33 41 18 22 1027.3 1027.2 0.0
20/03:40pm 15.2 6.9 2.4 42 5.7 S 35 54 19 29 1027.4 1027.3 0.0
20/03:30pm 15.5 7.4 3.5 44 5.5 SSE 35 48 19 26 1027.4 1027.3 0.0
20/03:00pm 15.7 7.6 3.2 43 5.7 SSE 35 48 19 26 1027.5 1027.4 0.0
20/02:30pm 15.0 6.9 3.0 44 5.4 S 35 48 19 26 1027.7 1027.6 0.0
20/02:03pm 16.2 8.4 2.7 40 6.1 S 33 52 18 28 1027.7 1027.6 0.0
20/02:00pm 16.2 8.3 2.4 39 6.2 S 33 48 18 26 1027.7 1027.6 0.0
20/01:30pm 16.4 8.5 2.4 39 6.3 S 33 44 18 24 1027.6 1027.5 0.0
20/01:00pm 14.5 7.4 3.7 48 4.9 S 30 39 16 21 1027.7 1027.6 0.0
20/12:30pm 15.7 8.3 4.0 45 5.4 S 32 48 17 26 1027.6 1027.5 0.0
20/12:00pm 11.9 5.0 7.1 72 2.3 S 33 43 18 23 1028.0 1027.9 0.0
20/11:30am 15.2 10.1 6.1 54 4.4 SSW 22 32 12 17 1027.9 1027.8 0.0
20/11:00am 12.5 5.4 5.4 62 3.3 S 32 46 17 25 1028.0 1027.9 0.0
20/10:30am 14.4 7.5 2.4 44 5.3 SSW 28 37 15 20 1027.8 1027.7 0.0
20/10:00am 13.9 7.1 3.2 48 4.8 SSW 28 35 15 19 1027.6 1027.5 0.0
20/09:30am 13.5 7.8 4.9 56 4.0 SSW 24 33 13 18 1027.4 1027.3 0.0
20/09:00am 12.0 5.9 4.8 61 3.3 SSW 26 33 14 18 1027.2 1027.1 3.4
20/08:30am 11.5 7.4 6.4 71 2.4 SW 17 24 9 13 1027.0 1026.9 3.4
20/08:00am 9.9 6.4 7.2 83 1.3 SW 15 19 8 10 1026.6 1026.6 3.4
20/07:30am 9.6 6.5 7.3 85 1.1 SW 13 19 7 10 1026.2 1026.2 3.4
20/07:00am 8.0 4.7 6.5 90 0.7 SW 13 15 7 8 1026.0 1026.0 3.4
20/06:30am 8.4 5.2 6.9 90 0.7 SW 13 17 7 9 1025.4 1025.4 3.4
20/06:00am 8.4 5.6 6.9 90 0.7 WSW 11 13 6 7 1024.9 1024.9 3.4
20/05:30am 9.7 5.9 7.4 85 1.1 WSW 17 24 9 13 1024.6 1024.6 3.4
20/05:00am 9.9 7.7 7.8 87 1.0 SW 9 13 5 7 1024.3 1024.3 3.4
20/04:30am 9.7 7.1 7.6 87 1.0 SSW 11 15 6 8 1024.2 1024.2 3.4
20/04:00am 8.7 6.1 6.3 85 1.1 WSW 9 17 5 9 1024.2 1024.2 3.4
20/03:30am 7.5 4.8 5.5 87 0.9 N 9 11 5 6 1023.8 1023.8 3.4
20/03:00am 8.5 5.9 6.1 85 1.1 WNW 9 11 5 6 1023.8 1023.8 3.4
20/02:30am 8.0 4.6 5.8 86 1.0 W 13 15 7 8 1023.9 1023.9 3.4
20/02:00am 8.5 5.8 5.6 82 1.3 WSW 9 11 5 6 1024.0 1024.0 3.4
20/01:30am 8.8 6.2 6.2 84 1.2 W 9 11 5 6 1024.1 1024.1 3.4
20/01:00am 8.5 5.5 6.1 85 1.1 WSW 11 11 6 6 1024.1 1024.1 3.4
20/12:30am 9.6 7.1 6.4 80 1.5 WSW 9 11 5 6 1024.2 1024.2 3.4
20/12:00am 10.2 7.3 6.3 77 1.8 SW 11 13 6 7 1024.4 1024.4 3.4
 
Date/Time
EDT
Temp
°C
App
Temp
°C
Dew
Point
°C
Rel
Hum
%
Delta-T
°C
Wind Press
QNH
hPa
Press
MSL
hPa
Rain since
9am
mm
Dir  Spd
km/h
Gust
km/h
Spd
kts
Gust
kts
19/11:30pm 10.9 7.2 6.2 73 2.2 SW 15 19 8 10 1024.4 1024.4 3.4
19/11:00pm 11.5 8.2 6.4 71 2.4 SW 13 17 7 9 1024.2 1024.2 3.4
19/10:30pm 12.4 8.7 6.5 67 2.8 SW 15 20 8 11 1024.2 1024.2 3.4
19/10:00pm 13.0 9.3 6.5 64 3.1 SW 15 20 8 11 1024.1 1024.1 3.4
19/09:30pm 14.2 9.2 6.5 60 3.7 SSW 22 28 12 15 1023.7 1023.7 3.4
19/09:00pm 14.7 10.3 7.2 61 3.7 SSW 20 30 11 16 1022.9 1022.9 3.4
19/08:30pm 14.9 10.6 7.9 63 3.5 SSW 20 28 11 15 1022.4 1022.4 3.4
19/08:00pm 15.2 10.8 8.9 66 3.2 SSW 22 32 12 17 1021.5 1021.5 3.4
19/07:30pm 16.0 10.1 9.0 63 3.6 SSW 30 39 16 21 1020.5 1020.4 3.4
19/07:00pm 16.5 10.6 9.2 62 3.8 SW 30 41 16 22 1020.0 1019.9 3.4
19/06:30pm 17.4 11.7 11.1 66 3.4 SW 32 41 17 22 1018.7 1018.6 3.4
19/06:01pm 17.2 11.0 12.7 75 2.5 SW 37 56 20 30 1018.1 1018.0 3.4
19/06:00pm 17.3 10.8 12.8 75 2.5 SW 39 56 21 30 1017.9 1017.9 3.4
19/05:49pm 17.5 11.5 13.2 76 2.4 SW 37 56 20 30 1017.9 1017.9 3.4
19/05:30pm 18.5 13.8 14.4 77 2.4 SSW 32 41 17 22 1017.5 1017.5 3.4

Latest Capital City Observations: Canberra | Sydney | Melbourne | Brisbane | Adelaide | Perth | Hobart | Darwin

Other Formats:

Comma delimited format used in spreadsheet applications
http://www.bom.gov.au/fwo/IDV60901/IDV60901.94866.axf

JavaScript Object Notation format (JSON) in row-major order
http://www.bom.gov.au/fwo/IDV60901/IDV60901.94866.json